sensor_id;sensor_type;location;lat;lon;timestamp;temperature;humidity
13682;DHT22;6913;49.892;7.936;2023-05-10T13:43:30;20.60;1.00
13682;DHT22;6913;49.892;7.936;2023-05-10T13:45:58;20.60;1.00
13682;DHT22;6913;49.892;7.936;2023-05-10T13:48:25;20.80;99.90
13682;DHT22;6913;49.892;7.936;2023-05-10T13:50:51;20.90;1.00
13682;DHT22;6913;49.892;7.936;2023-05-10T13:53:18;21.10;1.00
13682;DHT22;6913;49.892;7.936;2023-05-10T13:55:45;21.00;1.00
13682;DHT22;6913;49.892;7.936;2023-05-10T13:58:12;21.10;99.90
13682;DHT22;6913;49.892;7.936;2023-05-10T14:00:39;20.80;1.00
13682;DHT22;6913;49.892;7.936;2023-05-10T14:03:07;20.40;1.00
13682;DHT22;6913;49.892;7.936;2023-05-10T14:05:36;20.60;1.00
13682;DHT22;6913;49.892;7.936;2023-05-10T14:08:03;20.00;1.00
13682;DHT22;6913;49.892;7.936;2023-05-10T14:10:30;20.20;1.00
13682;DHT22;6913;49.892;7.936;2023-05-10T14:12:57;20.70;1.00
13682;DHT22;6913;49.892;7.936;2023-05-10T14:15:23;20.40;1.00
13682;DHT22;6913;49.892;7.936;2023-05-10T14:17:50;20.00;1.00
13682;DHT22;6913;49.892;7.936;2023-05-10T14:20:18;20.00;1.00
13682;DHT22;6913;49.892;7.936;2023-05-10T14:22:45;19.40;1.00
13682;DHT22;6913;49.892;7.936;2023-05-10T14:25:12;19.50;1.00
13682;DHT22;6913;49.892;7.936;2023-05-10T14:27:39;19.30;1.00
13682;DHT22;6913;49.892;7.936;2023-05-10T14:30:07;19.60;1.00
13682;DHT22;6913;49.892;7.936;2023-05-10T14:32:34;19.50;1.00
13682;DHT22;6913;49.892;7.936;2023-05-10T14:35:02;19.80;1.00
13682;DHT22;6913;49.892;7.936;2023-05-10T14:37:30;19.30;1.00
13682;DHT22;6913;49.892;7.936;2023-05-10T14:39:57;19.50;1.00
13682;DHT22;6913;49.892;7.936;2023-05-10T14:42:24;20.00;1.00
13682;DHT22;6913;49.892;7.936;2023-05-10T14:44:51;19.80;1.00
13682;DHT22;6913;49.892;7.936;2023-05-10T14:47:18;19.90;1.00
13682;DHT22;6913;49.892;7.936;2023-05-10T14:49:45;20.00;1.00
13682;DHT22;6913;49.892;7.936;2023-05-10T14:52:11;20.10;1.00
13682;DHT22;6913;49.892;7.936;2023-05-10T14:54:41;20.30;1.00
13682;DHT22;6913;49.892;7.936;2023-05-10T14:57:07;20.20;99.90
13682;DHT22;6913;49.892;7.936;2023-05-10T14:59:34;20.20;1.00
13682;DHT22;6913;49.892;7.936;2023-05-10T15:02:01;20.10;1.00
13682;DHT22;6913;49.892;7.936;2023-05-10T15:04:28;20.10;1.00
13682;DHT22;6913;49.892;7.936;2023-05-10T15:06:55;20.50;1.00
13682;DHT22;6913;49.892;7.936;2023-05-10T15:09:25;20.60;1.00
13682;DHT22;6913;49.892;7.936;2023-05-10T15:11:54;20.50;1.00
13682;DHT22;6913;49.892;7.936;2023-05-10T15:14:22;20.60;1.00
13682;DHT22;6913;49.892;7.936;2023-05-10T15:16:48;20.60;99.90
13682;DHT22;6913;49.892;7.936;2023-05-10T15:19:15;20.20;99.90
13682;DHT22;6913;49.892;7.936;2023-05-10T15:21:42;20.30;99.90
13682;DHT22;6913;49.892;7.936;2023-05-10T15:24:10;20.40;99.90
13682;DHT22;6913;49.892;7.936;2023-05-10T15:26:36;20.50;1.00
13682;DHT22;6913;49.892;7.936;2023-05-10T15:29:04;20.70;1.00
13682;DHT22;6913;49.892;7.936;2023-05-10T15:31:31;20.50;99.90
13682;DHT22;6913;49.892;7.936;2023-05-10T15:34:00;20.70;99.90
13682;DHT22;6913;49.892;7.936;2023-05-10T15:36:27;20.30;99.90
13682;DHT22;6913;49.892;7.936;2023-05-10T15:38:54;20.20;99.90
13682;DHT22;6913;49.892;7.936;2023-05-10T15:41:21;20.30;99.90
13682;DHT22;6913;49.892;7.936;2023-05-10T15:43:48;20.40;99.90
13682;DHT22;6913;49.892;7.936;2023-05-10T15:46:16;20.60;99.90
13682;DHT22;6913;49.892;7.936;2023-05-10T15:48:42;20.40;99.90
13682;DHT22;6913;49.892;7.936;2023-05-10T15:51:09;20.50;1.00
13682;DHT22;6913;49.892;7.936;2023-05-10T15:53:36;20.70;99.90
13682;DHT22;6913;49.892;7.936;2023-05-10T15:56:04;20.40;99.90
13682;DHT22;6913;49.892;7.936;2023-05-10T15:58:31;20.10;99.90
13682;DHT22;6913;49.892;7.936;2023-05-10T16:00:58;20.20;99.90
13682;DHT22;6913;49.892;7.936;2023-05-10T16:03:26;20.30;99.90
13682;DHT22;6913;49.892;7.936;2023-05-10T16:05:53;20.30;99.90
13682;DHT22;6913;49.892;7.936;2023-05-10T16:08:20;20.10;99.90
13682;DHT22;6913;49.892;7.936;2023-05-10T16:10:47;20.20;99.90
13682;DHT22;6913;49.892;7.936;2023-05-10T16:13:14;20.20;99.90
13682;DHT22;6913;49.892;7.936;2023-05-10T16:15:41;19.80;99.90
13682;DHT22;6913;49.892;7.936;2023-05-10T16:18:08;20.10;99.90
13682;DHT22;6913;49.892;7.936;2023-05-10T16:20:38;19.90;99.90
13682;DHT22;6913;49.892;7.936;2023-05-10T16:23:06;20.00;99.90
13682;DHT22;6913;49.892;7.936;2023-05-10T16:25:33;20.00;99.90
13682;DHT22;6913;49.892;7.936;2023-05-10T16:28:00;20.20;99.90
13682;DHT22;6913;49.892;7.936;2023-05-10T16:30:27;20.10;99.90
13682;DHT22;6913;49.892;7.936;2023-05-10T16:32:55;20.30;99.90
13682;DHT22;6913;49.892;7.936;2023-05-10T16:35:22;19.70;99.90
13682;DHT22;6913;49.892;7.936;2023-05-10T16:37:50;19.60;99.90
13682;DHT22;6913;49.892;7.936;2023-05-10T16:40:17;20.20;99.90
13682;DHT22;6913;49.892;7.936;2023-05-10T16:42:44;19.70;99.90
13682;DHT22;6913;49.892;7.936;2023-05-10T16:45:11;19.70;99.90
13682;DHT22;6913;49.892;7.936;2023-05-10T16:47:39;19.80;99.90
13682;DHT22;6913;49.892;7.936;2023-05-10T16:50:07;19.90;99.90
13682;DHT22;6913;49.892;7.936;2023-05-10T16:52:35;20.00;99.90
13682;DHT22;6913;49.892;7.936;2023-05-10T16:55:03;19.70;99.90
13682;DHT22;6913;49.892;7.936;2023-05-10T16:57:31;19.60;99.90
13682;DHT22;6913;49.892;7.936;2023-05-10T16:59:58;19.50;99.90
13682;DHT22;6913;49.892;7.936;2023-05-10T17:02:25;19.50;99.90
13682;DHT22;6913;49.892;7.936;2023-05-10T17:04:51;19.70;99.90
13682;DHT22;6913;49.892;7.936;2023-05-10T17:07:20;19.30;99.90
13682;DHT22;6913;49.892;7.936;2023-05-10T17:09:47;19.60;1.00
13682;DHT22;6913;49.892;7.936;2023-05-10T17:12:15;19.40;99.90
13682;DHT22;6913;49.892;7.936;2023-05-10T17:14:42;19.40;99.90
13682;DHT22;6913;49.892;7.936;2023-05-10T17:17:09;19.50;99.90
13682;DHT22;6913;49.892;7.936;2023-05-10T17:19:36;19.30;99.90
13682;DHT22;6913;49.892;7.936;2023-05-10T17:22:03;19.20;99.90
13682;DHT22;6913;49.892;7.936;2023-05-10T17:24:30;19.30;99.90
13682;DHT22;6913;49.892;7.936;2023-05-10T17:26:57;19.30;99.90
13682;DHT22;6913;49.892;7.936;2023-05-10T17:29:26;19.50;99.90
13682;DHT22;6913;49.892;7.936;2023-05-10T17:31:54;19.40;99.90
13682;DHT22;6913;49.892;7.936;2023-05-10T17:34:21;19.40;99.90
13682;DHT22;6913;49.892;7.936;2023-05-10T17:36:48;19.70;99.90
13682;DHT22;6913;49.892;7.936;2023-05-10T17:39:14;19.60;99.90
13682;DHT22;6913;49.892;7.936;2023-05-10T17:41:41;19.20;99.90
13682;DHT22;6913;49.892;7.936;2023-05-10T17:44:08;19.20;99.90
13682;DHT22;6913;49.892;7.936;2023-05-10T17:46:36;19.00;99.90
13682;DHT22;6913;49.892;7.936;2023-05-10T17:49:03;18.90;99.90
13682;DHT22;6913;49.892;7.936;2023-05-10T17:51:30;18.90;99.90
13682;DHT22;6913;49.892;7.936;2023-05-10T17:53:57;19.20;1.00
13682;DHT22;6913;49.892;7.936;2023-05-10T17:56:23;19.00;99.90
13682;DHT22;6913;49.892;7.936;2023-05-10T17:58:50;19.00;99.90
13682;DHT22;6913;49.892;7.936;2023-05-10T18:01:17;19.10;99.90
13682;DHT22;6913;49.892;7.936;2023-05-10T18:03:48;18.70;99.90
13682;DHT22;6913;49.892;7.936;2023-05-10T18:06:16;18.90;99.90
13682;DHT22;6913;49.892;7.936;2023-05-10T18:08:43;18.50;99.90
13682;DHT22;6913;49.892;7.936;2023-05-10T18:11:10;18.40;1.00
13682;DHT22;6913;49.892;7.936;2023-05-10T18:13:37;18.20;99.90
13682;DHT22;6913;49.892;7.936;2023-05-10T18:16:04;18.50;1.00
13682;DHT22;6913;49.892;7.936;2023-05-10T18:18:33;18.00;1.00
13682;DHT22;6913;49.892;7.936;2023-05-10T18:21:01;17.90;1.00
13682;DHT22;6913;49.892;7.936;2023-05-10T18:23:28;17.80;1.00
13682;DHT22;6913;49.892;7.936;2023-05-10T18:25:55;17.60;1.00
13682;DHT22;6913;49.892;7.936;2023-05-10T18:28:22;17.80;1.00
13682;DHT22;6913;49.892;7.936;2023-05-10T18:30:50;17.50;1.00
13682;DHT22;6913;49.892;7.936;2023-05-10T18:33:16;17.50;1.00
13682;DHT22;6913;49.892;7.936;2023-05-10T18:35:43;17.40;1.00
13682;DHT22;6913;49.892;7.936;2023-05-10T18:38:12;17.40;1.00
13682;DHT22;6913;49.892;7.936;2023-05-10T18:40:39;17.30;1.00
13682;DHT22;6913;49.892;7.936;2023-05-10T18:43:06;17.20;1.00
13682;DHT22;6913;49.892;7.936;2023-05-10T18:45:33;17.00;1.00
13682;DHT22;6913;49.892;7.936;2023-05-10T18:48:00;16.70;1.00
13682;DHT22;6913;49.892;7.936;2023-05-10T18:50:27;16.50;1.00
13682;DHT22;6913;49.892;7.936;2023-05-10T18:52:54;16.50;1.00
13682;DHT22;6913;49.892;7.936;2023-05-10T18:55:23;16.40;1.00
13682;DHT22;6913;49.892;7.936;2023-05-10T18:57:50;16.30;1.00
13682;DHT22;6913;49.892;7.936;2023-05-10T19:00:16;16.20;1.00
13682;DHT22;6913;49.892;7.936;2023-05-10T19:02:44;16.20;1.00
13682;DHT22;6913;49.892;7.936;2023-05-10T19:05:12;16.10;1.00
13682;DHT22;6913;49.892;7.936;2023-05-10T19:07:39;16.00;1.00
13682;DHT22;6913;49.892;7.936;2023-05-10T19:10:09;15.90;1.00
13682;DHT22;6913;49.892;7.936;2023-05-10T19:12:38;15.80;1.00
13682;DHT22;6913;49.892;7.936;2023-05-10T19:15:07;15.80;1.00
13682;DHT22;6913;49.892;7.936;2023-05-10T19:17:35;15.70;1.00
13682;DHT22;6913;49.892;7.936;2023-05-10T19:20:03;15.70;1.00
13682;DHT22;6913;49.892;7.936;2023-05-10T19:22:30;15.60;1.00
13682;DHT22;6913;49.892;7.936;2023-05-10T19:24:57;15.60;1.00
13682;DHT22;6913;49.892;7.936;2023-05-10T19:27:23;15.60;1.00
13682;DHT22;6913;49.892;7.936;2023-05-10T19:29:52;15.60;1.00
13682;DHT22;6913;49.892;7.936;2023-05-10T19:32:18;15.40;1.00
13682;DHT22;6913;49.892;7.936;2023-05-10T19:34:45;15.30;1.00
13682;DHT22;6913;49.892;7.936;2023-05-10T19:37:12;15.20;1.00
13682;DHT22;6913;49.892;7.936;2023-05-10T19:39:38;15.10;1.00
13682;DHT22;6913;49.892;7.936;2023-05-10T19:42:05;14.80;6.20
13682;DHT22;6913;49.892;7.936;2023-05-10T19:44:32;15.10;11.70
13682;DHT22;6913;49.892;7.936;2023-05-10T19:47:00;15.10;18.40
13682;DHT22;6913;49.892;7.936;2023-05-10T19:49:29;14.70;20.20
13682;DHT22;6913;49.892;7.936;2023-05-10T19:51:55;14.70;42.30
13682;DHT22;6913;49.892;7.936;2023-05-10T19:54:22;14.50;41.10
13682;DHT22;6913;49.892;7.936;2023-05-10T19:56:49;14.50;55.60
13682;DHT22;6913;49.892;7.936;2023-05-10T19:59:16;14.70;58.00
13682;DHT22;6913;49.892;7.936;2023-05-10T20:01:43;14.80;29.70
13682;DHT22;6913;49.892;7.936;2023-05-10T20:04:12;14.70;34.40
13682;DHT22;6913;49.892;7.936;2023-05-10T20:06:38;14.50;44.80
13682;DHT22;6913;49.892;7.936;2023-05-10T20:09:05;14.40;57.00
13682;DHT22;6913;49.892;7.936;2023-05-10T20:11:33;14.40;58.30
13682;DHT22;6913;49.892;7.936;2023-05-10T20:14:00;14.30;74.00
13682;DHT22;6913;49.892;7.936;2023-05-10T20:16:27;14.30;68.70
13682;DHT22;6913;49.892;7.936;2023-05-10T20:18:54;14.40;74.70
13682;DHT22;6913;49.892;7.936;2023-05-10T20:21:22;14.40;67.20
13682;DHT22;6913;49.892;7.936;2023-05-10T20:23:50;14.30;70.50
13682;DHT22;6913;49.892;7.936;2023-05-10T20:26:17;14.30;73.90
13682;DHT22;6913;49.892;7.936;2023-05-10T20:28:44;14.30;94.60
13682;DHT22;6913;49.892;7.936;2023-05-10T20:31:11;14.20;99.90
13682;DHT22;6913;49.892;7.936;2023-05-10T20:33:37;14.20;99.90
13682;DHT22;6913;49.892;7.936;2023-05-10T20:36:04;14.10;99.90
13682;DHT22;6913;49.892;7.936;2023-05-10T20:38:35;14.00;99.90
13682;DHT22;6913;49.892;7.936;2023-05-10T20:41:02;14.00;99.90
13682;DHT22;6913;49.892;7.936;2023-05-10T20:43:29;13.80;99.90
13682;DHT22;6913;49.892;7.936;2023-05-10T20:45:55;13.80;99.90
13682;DHT22;6913;49.892;7.936;2023-05-10T20:48:29;13.80;99.90
13682;DHT22;6913;49.892;7.936;2023-05-10T20:50:57;13.70;99.90
13682;DHT22;6913;49.892;7.936;2023-05-10T20:53:23;13.80;97.10
13682;DHT22;6913;49.892;7.936;2023-05-10T20:55:51;13.60;99.90
13682;DHT22;6913;49.892;7.936;2023-05-10T20:58:18;13.40;99.90
13682;DHT22;6913;49.892;7.936;2023-05-10T21:00:45;13.50;99.90
13682;DHT22;6913;49.892;7.936;2023-05-10T21:03:12;13.60;99.90
13682;DHT22;6913;49.892;7.936;2023-05-10T21:05:39;14.00;98.70
13682;DHT22;6913;49.892;7.936;2023-05-10T21:08:06;13.50;99.90
13682;DHT22;6913;49.892;7.936;2023-05-10T21:10:33;13.60;99.90
13682;DHT22;6913;49.892;7.936;2023-05-10T21:13:01;13.80;99.90
13682;DHT22;6913;49.892;7.936;2023-05-10T21:15:28;13.70;99.90
13682;DHT22;6913;49.892;7.936;2023-05-10T21:17:54;13.60;99.90
13682;DHT22;6913;49.892;7.936;2023-05-10T21:20:21;13.80;99.90
13682;DHT22;6913;49.892;7.936;2023-05-10T21:22:49;13.80;99.90
13682;DHT22;6913;49.892;7.936;2023-05-10T21:25:16;13.70;99.90
13682;DHT22;6913;49.892;7.936;2023-05-10T21:27:43;13.70;99.90
13682;DHT22;6913;49.892;7.936;2023-05-10T21:30:12;13.70;99.90
13682;DHT22;6913;49.892;7.936;2023-05-10T21:32:38;13.60;99.90
13682;DHT22;6913;49.892;7.936;2023-05-10T21:35:07;13.60;99.90
13682;DHT22;6913;49.892;7.936;2023-05-10T21:37:33;13.40;99.90
13682;DHT22;6913;49.892;7.936;2023-05-10T21:40:00;13.20;99.90
13682;DHT22;6913;49.892;7.936;2023-05-10T21:42:27;12.90;99.90
13682;DHT22;6913;49.892;7.936;2023-05-10T21:44:54;12.80;99.90
13682;DHT22;6913;49.892;7.936;2023-05-10T21:47:22;12.60;99.90
13682;DHT22;6913;49.892;7.936;2023-05-10T21:49:49;12.50;99.90
13682;DHT22;6913;49.892;7.936;2023-05-10T21:52:16;12.50;99.90
13682;DHT22;6913;49.892;7.936;2023-05-10T21:54:43;12.50;99.90
13682;DHT22;6913;49.892;7.936;2023-05-10T21:57:09;12.50;99.90
13682;DHT22;6913;49.892;7.936;2023-05-10T21:59:36;12.40;99.90
13682;DHT22;6913;49.892;7.936;2023-05-10T22:02:03;12.50;99.90
13682;DHT22;6913;49.892;7.936;2023-05-10T22:04:31;12.60;99.90
13682;DHT22;6913;49.892;7.936;2023-05-10T22:06:59;12.60;99.90
13682;DHT22;6913;49.892;7.936;2023-05-10T22:09:25;12.50;99.90
13682;DHT22;6913;49.892;7.936;2023-05-10T22:11:52;12.50;99.90
13682;DHT22;6913;49.892;7.936;2023-05-10T22:14:20;12.30;99.90
13682;DHT22;6913;49.892;7.936;2023-05-10T22:16:48;12.40;99.90
13682;DHT22;6913;49.892;7.936;2023-05-10T22:19:15;12.40;99.90
13682;DHT22;6913;49.892;7.936;2023-05-10T22:21:43;12.40;99.90
13682;DHT22;6913;49.892;7.936;2023-05-10T22:24:10;12.50;99.90
13682;DHT22;6913;49.892;7.936;2023-05-10T22:26:37;12.30;99.90
13682;DHT22;6913;49.892;7.936;2023-05-10T22:29:04;12.30;99.90
13682;DHT22;6913;49.892;7.936;2023-05-10T22:31:31;12.30;99.90
13682;DHT22;6913;49.892;7.936;2023-05-10T22:33:57;11.90;99.90
13682;DHT22;6913;49.892;7.936;2023-05-10T22:36:24;11.90;99.90
13682;DHT22;6913;49.892;7.936;2023-05-10T22:38:53;12.00;99.90
13682;DHT22;6913;49.892;7.936;2023-05-10T22:41:20;12.00;99.90
13682;DHT22;6913;49.892;7.936;2023-05-10T22:43:46;12.00;99.90
13682;DHT22;6913;49.892;7.936;2023-05-10T22:46:14;12.00;99.90
13682;DHT22;6913;49.892;7.936;2023-05-10T22:48:41;11.90;99.90
13682;DHT22;6913;49.892;7.936;2023-05-10T22:51:08;12.00;99.90
13682;DHT22;6913;49.892;7.936;2023-05-10T22:53:35;11.90;99.90
13682;DHT22;6913;49.892;7.936;2023-05-10T22:56:04;11.80;99.90
13682;DHT22;6913;49.892;7.936;2023-05-10T22:58:31;11.80;99.90
13682;DHT22;6913;49.892;7.936;2023-05-10T23:00:58;11.80;99.90
13682;DHT22;6913;49.892;7.936;2023-05-10T23:03:24;11.70;99.90
13682;DHT22;6913;49.892;7.936;2023-05-10T23:05:51;11.70;99.90
13682;DHT22;6913;49.892;7.936;2023-05-10T23:08:18;11.60;99.90
13682;DHT22;6913;49.892;7.936;2023-05-10T23:10:45;11.60;99.90
13682;DHT22;6913;49.892;7.936;2023-05-10T23:13:13;11.60;99.90
13682;DHT22;6913;49.892;7.936;2023-05-10T23:15:40;11.60;99.90
13682;DHT22;6913;49.892;7.936;2023-05-10T23:18:08;11.50;99.90
13682;DHT22;6913;49.892;7.936;2023-05-10T23:20:35;11.50;99.90
13682;DHT22;6913;49.892;7.936;2023-05-10T23:23:01;11.40;99.90
13682;DHT22;6913;49.892;7.936;2023-05-10T23:25:28;11.40;99.90
13682;DHT22;6913;49.892;7.936;2023-05-10T23:27:55;11.10;99.90
13682;DHT22;6913;49.892;7.936;2023-05-10T23:30:23;10.90;99.90
13682;DHT22;6913;49.892;7.936;2023-05-10T23:32:50;11.10;99.90
13682;DHT22;6913;49.892;7.936;2023-05-10T23:35:16;10.60;99.90
13682;DHT22;6913;49.892;7.936;2023-05-10T23:37:43;10.50;99.90
13682;DHT22;6913;49.892;7.936;2023-05-10T23:40:10;10.70;99.90
13682;DHT22;6913;49.892;7.936;2023-05-10T23:42:37;10.70;99.90
13682;DHT22;6913;49.892;7.936;2023-05-10T23:45:05;10.70;99.90
13682;DHT22;6913;49.892;7.936;2023-05-10T23:47:33;10.70;99.90
13682;DHT22;6913;49.892;7.936;2023-05-10T23:50:00;10.70;99.90
13682;DHT22;6913;49.892;7.936;2023-05-10T23:52:27;10.70;99.90
13682;DHT22;6913;49.892;7.936;2023-05-10T23:54:54;10.70;99.90
13682;DHT22;6913;49.892;7.936;2023-05-10T23:57:21;10.60;99.90
13682;DHT22;6913;49.892;7.936;2023-05-10T23:59:47;10.70;99.90
